Time;durP1;ratioP1;P1;durP2;ratioP2;P2;SDS_P1;SDS_P2;PMS_P1;PMS_P2;Temp;Humidity;BMP_temperature;BMP_pressure;BME280_temperature;BME280_humidity;BME280_pressure;Samples;Min_cycle;Max_cycle;Signal;HPM_P1;HPM_P2
2024/01/28 00:00:56;;;;;;;;;;;18.70;54.30;;;;;;1555988;75;561;-73
2024/01/28 00:02:58;;;;;;;;;;;18.70;54.00;;;;;;1557683;75;753;-73
2024/01/28 00:05:00;;;;;;;;;;;18.70;54.20;;;;;;1558920;75;759;-70
2024/01/28 00:07:02;;;;;;;;;;;18.70;54.20;;;;;;1549643;75;1942;-74
2024/01/28 00:09:04;;;;;;;;;;;18.70;54.20;;;;;;1547526;75;1170;-71
2024/01/28 00:11:06;;;;;;;;;;;18.70;54.20;;;;;;1561055;75;727;-71
2024/01/28 00:13:08;;;;;;;;;;;18.70;54.10;;;;;;1565036;75;597;-72
2024/01/28 00:15:10;;;;;;;;;;;18.70;54.30;;;;;;1561748;75;713;-71
2024/01/28 00:17:13;;;;;;;;;;;18.60;54.10;;;;;;1557177;74;752;-74
2024/01/28 00:19:14;;;;;;;;;;;18.70;54.10;;;;;;1547653;75;1154;-71
2024/01/28 00:21:16;;;;;;;;;;;18.70;54.30;;;;;;1538785;76;645;-74
2024/01/28 00:23:20;;;;;;;;;;;18.60;54.10;;;;;;1563429;75;658;-72
2024/01/28 00:25:22;;;;;;;;;;;18.60;54.00;;;;;;1558950;75;678;-72
2024/01/28 00:27:24;;;;;;;;;;;18.70;53.90;;;;;;1552754;75;1967;-71
2024/01/28 00:29:28;;;;;;;;;;;18.70;54.10;;;;;;1560689;75;1372;-72
2024/01/28 00:31:29;;;;;;;;;;;18.70;53.90;;;;;;1566215;75;1733;-68
2024/01/28 00:33:31;;;;;;;;;;;18.70;54.00;;;;;;1557433;75;752;-75
2024/01/28 00:35:34;;;;;;;;;;;18.60;53.90;;;;;;1560354;75;729;-71
2024/01/28 00:37:36;;;;;;;;;;;18.70;53.90;;;;;;1556116;75;722;-73
2024/01/28 00:39:38;;;;;;;;;;;18.70;53.90;;;;;;1559041;75;1184;-73
2024/01/28 00:41:40;;;;;;;;;;;18.70;53.80;;;;;;1554135;75;617;-74
2024/01/28 00:43:42;;;;;;;;;;;18.60;53.80;;;;;;1557073;75;701;-71
2024/01/28 00:45:43;;;;;;;;;;;18.70;53.80;;;;;;1547492;75;1931;-70
2024/01/28 00:47:45;;;;;;;;;;;18.70;53.90;;;;;;1550297;75;651;-70
2024/01/28 00:49:47;;;;;;;;;;;18.60;53.70;;;;;;1553216;75;1132;-73
2024/01/28 00:51:49;;;;;;;;;;;18.70;52.90;;;;;;1554777;75;718;-76
2024/01/28 00:53:51;;;;;;;;;;;18.70;53.20;;;;;;1553815;75;632;-78
2024/01/28 00:55:53;;;;;;;;;;;18.60;53.80;;;;;;1553160;75;726;-76
2024/01/28 00:57:55;;;;;;;;;;;18.70;54.50;;;;;;1559340;75;696;-70
2024/01/28 00:59:58;;;;;;;;;;;18.70;54.30;;;;;;1553325;75;1120;-74
2024/01/28 01:02:00;;;;;;;;;;;18.80;54.40;;;;;;1559651;75;718;-77
2024/01/28 01:04:01;;;;;;;;;;;18.80;54.70;;;;;;1561637;75;704;-75
2024/01/28 01:06:03;;;;;;;;;;;18.80;54.70;;;;;;1557627;75;1930;-75
2024/01/28 01:08:05;;;;;;;;;;;18.90;54.50;;;;;;1558527;75;818;-72
2024/01/28 01:10:08;;;;;;;;;;;18.90;54.30;;;;;;1559891;75;1127;-73
2024/01/28 01:12:10;;;;;;;;;;;18.90;54.50;;;;;;1558383;75;756;-75
2024/01/28 01:14:12;;;;;;;;;;;18.80;54.10;;;;;;1550217;75;777;-76
2024/01/28 01:16:14;;;;;;;;;;;18.90;54.30;;;;;;1552164;75;557;-74
2024/01/28 01:18:16;;;;;;;;;;;18.90;54.10;;;;;;1555916;75;784;-77
2024/01/28 01:20:17;;;;;;;;;;;18.90;54.20;;;;;;1554247;75;1115;-77
2024/01/28 01:22:19;;;;;;;;;;;18.90;54.40;;;;;;1554894;75;650;-77
2024/01/28 01:24:21;;;;;;;;;;;18.80;54.20;;;;;;1552693;75;688;-78
2024/01/28 01:26:23;;;;;;;;;;;18.80;54.20;;;;;;1557209;75;1919;-74
2024/01/28 01:28:31;;;;;;;;;;;18.80;54.20;;;;;;1553608;75;733;-77
2024/01/28 01:30:28;;;;;;;;;;;18.80;54.40;;;;;;1555883;75;1296;-77
2024/01/28 01:32:30;;;;;;;;;;;18.90;54.40;;;;;;1560715;75;732;-73
2024/01/28 01:34:32;;;;;;;;;;;18.80;54.30;;;;;;1555382;75;700;-74
2024/01/28 01:36:34;;;;;;;;;;;18.80;54.30;;;;;;1557453;75;701;-75
2024/01/28 01:38:36;;;;;;;;;;;18.80;54.40;;;;;;1552659;75;1153;-75
2024/01/28 01:40:38;;;;;;;;;;;18.80;54.40;;;;;;1556755;75;639;-73
2024/01/28 01:42:40;;;;;;;;;;;18.90;54.50;;;;;;1559637;75;603;-75
2024/01/28 01:44:42;;;;;;;;;;;18.80;54.50;;;;;;1558806;75;677;-71
2024/01/28 01:46:44;;;;;;;;;;;18.80;54.50;;;;;;1563964;75;1915;-75
2024/01/28 01:48:46;;;;;;;;;;;18.80;54.40;;;;;;1554054;75;1093;-74
2024/01/28 01:50:48;;;;;;;;;;;18.90;54.50;;;;;;1563560;75;677;-74
2024/01/28 01:52:50;;;;;;;;;;;18.80;54.50;;;;;;1557151;75;586;-73
2024/01/28 01:54:51;;;;;;;;;;;18.90;54.60;;;;;;1561379;75;702;-74
2024/01/28 01:56:53;;;;;;;;;;;18.80;54.40;;;;;;1557557;75;675;-72
2024/01/28 01:58:57;;;;;;;;;;;18.90;54.60;;;;;;1556482;75;1135;-75
2024/01/28 02:00:59;;;;;;;;;;;18.90;54.50;;;;;;1552153;75;698;-72
2024/01/28 02:03:03;;;;;;;;;;;18.80;54.60;;;;;;1554197;75;646;-73
2024/01/28 02:05:06;;;;;;;;;;;18.80;54.40;;;;;;1560778;75;898;-75
2024/01/28 02:07:08;;;;;;;;;;;18.80;54.50;;;;;;1565816;75;1902;-75
2024/01/28 02:09:10;;;;;;;;;;;18.90;54.50;;;;;;1563940;75;1132;-75
2024/01/28 02:11:12;;;;;;;;;;;18.80;54.40;;;;;;1553005;75;705;-74
2024/01/28 02:13:14;;;;;;;;;;;18.90;54.60;;;;;;1561402;75;620;-75
2024/01/28 02:15:15;;;;;;;;;;;18.80;54.60;;;;;;1561131;75;751;-74
2024/01/28 02:17:17;;;;;;;;;;;18.80;54.50;;;;;;1550774;75;715;-74
2024/01/28 02:19:19;;;;;;;;;;;18.90;54.70;;;;;;1566009;75;1121;-74
2024/01/28 02:21:21;;;;;;;;;;;18.80;54.70;;;;;;1562682;75;583;-77
2024/01/28 02:23:23;;;;;;;;;;;18.80;54.50;;;;;;1558842;75;665;-74
2024/01/28 02:25:25;;;;;;;;;;;18.80;54.50;;;;;;1555799;75;737;-75
2024/01/28 02:27:27;;;;;;;;;;;18.80;54.70;;;;;;1557508;75;1927;-75
2024/01/28 02:29:29;;;;;;;;;;;18.80;54.60;;;;;;1567183;75;1363;-75
2024/01/28 02:31:31;;;;;;;;;;;18.80;54.70;;;;;;1554559;75;606;-75
2024/01/28 02:33:33;;;;;;;;;;;18.80;54.70;;;;;;1557409;75;714;-75
2024/01/28 02:35:35;;;;;;;;;;;18.80;54.60;;;;;;1553924;75;701;-74
2024/01/28 02:37:37;;;;;;;;;;;18.80;54.70;;;;;;1558775;75;655;-75
2024/01/28 02:39:39;;;;;;;;;;;18.70;54.70;;;;;;1558914;75;1181;-75
2024/01/28 02:41:41;;;;;;;;;;;18.80;54.70;;;;;;1561309;75;744;-74
2024/01/28 02:43:43;;;;;;;;;;;18.80;54.70;;;;;;1559354;75;721;-73
2024/01/28 02:45:45;;;;;;;;;;;18.80;54.80;;;;;;1558221;75;747;-75
2024/01/28 02:47:47;;;;;;;;;;;18.80;54.90;;;;;;1551102;75;1942;-74
2024/01/28 02:49:49;;;;;;;;;;;18.80;54.70;;;;;;1556157;75;1141;-74
2024/01/28 02:51:51;;;;;;;;;;;18.80;54.70;;;;;;1559237;75;663;-73
2024/01/28 02:53:53;;;;;;;;;;;18.80;54.70;;;;;;1561005;74;718;-73
2024/01/28 02:55:59;;;;;;;;;;;18.70;54.70;;;;;;1560086;75;712;-75
2024/01/28 02:58:01;;;;;;;;;;;18.80;54.80;;;;;;1561511;74;1796;-74
2024/01/28 03:00:04;;;;;;;;;;;18.80;54.80;;;;;;1561096;75;1097;-73
2024/01/28 03:02:06;;;;;;;;;;;18.70;54.80;;;;;;1558815;75;772;-74
2024/01/28 03:04:07;;;;;;;;;;;18.70;54.80;;;;;;1560578;75;733;-72
2024/01/28 03:06:10;;;;;;;;;;;18.70;54.90;;;;;;1570708;75;694;-72
2024/01/28 03:08:12;;;;;;;;;;;18.70;54.90;;;;;;1557598;75;1912;-74
2024/01/28 03:10:14;;;;;;;;;;;18.80;55.00;;;;;;1558639;75;1167;-73
2024/01/28 03:12:15;;;;;;;;;;;18.80;55.00;;;;;;1554114;75;713;-74
2024/01/28 03:14:17;;;;;;;;;;;18.80;54.90;;;;;;1558979;75;715;-73
2024/01/28 03:16:19;;;;;;;;;;;18.70;55.00;;;;;;1554155;75;780;-74
2024/01/28 03:18:21;;;;;;;;;;;18.80;55.00;;;;;;1563972;74;753;-76
2024/01/28 03:20:25;;;;;;;;;;;18.80;55.00;;;;;;1559603;75;1198;-75
2024/01/28 03:22:27;;;;;;;;;;;18.70;55.00;;;;;;1556545;75;692;-73
2024/01/28 03:24:29;;;;;;;;;;;18.70;55.00;;;;;;1553452;75;628;-74
2024/01/28 03:26:34;;;;;;;;;;;18.80;55.00;;;;;;1556452;75;609;-73
2024/01/28 03:28:34;;;;;;;;;;;18.70;55.10;;;;;;1559302;75;1170;-73
2024/01/28 03:30:36;;;;;;;;;;;18.80;55.10;;;;;;1559640;75;1366;-75
2024/01/28 03:32:38;;;;;;;;;;;18.80;55.10;;;;;;1559757;75;630;-74
2024/01/28 03:34:40;;;;;;;;;;;18.80;55.10;;;;;;1567636;75;617;-74
2024/01/28 03:36:42;;;;;;;;;;;18.70;55.10;;;;;;1556046;75;754;-73
2024/01/28 03:38:44;;;;;;;;;;;18.80;55.00;;;;;;1560504;75;1154;-73
2024/01/28 03:40:45;;;;;;;;;;;18.80;55.10;;;;;;1557657;75;737;-73
2024/01/28 03:42:47;;;;;;;;;;;18.80;55.10;;;;;;1559759;75;685;-74
2024/01/28 03:44:49;;;;;;;;;;;18.80;55.20;;;;;;1557163;75;713;-76
2024/01/28 03:46:52;;;;;;;;;;;18.80;55.30;;;;;;1556619;75;1925;-77
2024/01/28 03:48:54;;;;;;;;;;;18.80;55.10;;;;;;1558205;75;1178;-77
2024/01/28 03:50:56;;;;;;;;;;;18.80;55.10;;;;;;1553405;75;654;-77
2024/01/28 03:52:57;;;;;;;;;;;18.80;55.10;;;;;;1563991;75;707;-76
2024/01/28 03:54:59;;;;;;;;;;;18.90;55.20;;;;;;1564277;75;625;-77
2024/01/28 03:57:02;;;;;;;;;;;18.80;55.00;;;;;;1558661;75;726;-74
2024/01/28 03:59:04;;;;;;;;;;;18.80;55.10;;;;;;1562752;75;1127;-74
2024/01/28 04:01:05;;;;;;;;;;;18.80;55.20;;;;;;1562497;75;728;-74
2024/01/28 04:03:08;;;;;;;;;;;18.80;55.20;;;;;;1563351;75;730;-76
2024/01/28 04:05:10;;;;;;;;;;;18.70;55.20;;;;;;1549032;75;715;-76
2024/01/28 04:07:12;;;;;;;;;;;18.80;55.20;;;;;;1557554;75;1954;-77
2024/01/28 04:09:14;;;;;;;;;;;18.70;55.30;;;;;;1554281;75;1149;-77
2024/01/28 04:11:16;;;;;;;;;;;18.80;55.30;;;;;;1553357;75;700;-77
2024/01/28 04:13:17;;;;;;;;;;;18.80;55.20;;;;;;1558049;75;724;-77
2024/01/28 04:15:19;;;;;;;;;;;18.70;55.20;;;;;;1553113;75;747;-73
2024/01/28 04:17:21;;;;;;;;;;;18.80;55.20;;;;;;1562890;75;754;-73
2024/01/28 04:19:23;;;;;;;;;;;18.80;55.30;;;;;;1551953;75;1121;-77
2024/01/28 04:21:26;;;;;;;;;;;18.70;55.30;;;;;;1553057;75;726;-74
2024/01/28 04:23:28;;;;;;;;;;;18.70;55.30;;;;;;1559547;75;706;-76
2024/01/28 04:25:29;;;;;;;;;;;18.70;55.30;;;;;;1564725;75;764;-76
2024/01/28 04:27:31;;;;;;;;;;;18.70;55.40;;;;;;1560472;75;1947;-76
2024/01/28 04:29:33;;;;;;;;;;;18.70;55.30;;;;;;1566903;75;1357;-75
2024/01/28 04:31:35;;;;;;;;;;;18.70;55.40;;;;;;1560697;75;696;-77
2024/01/28 04:33:37;;;;;;;;;;;18.70;55.30;;;;;;1540170;76;989;-75
2024/01/28 04:35:39;;;;;;;;;;;18.80;55.20;;;;;;1553750;75;707;-75
2024/01/28 04:37:41;;;;;;;;;;;18.70;55.30;;;;;;1560311;75;677;-73
2024/01/28 04:39:44;;;;;;;;;;;18.70;55.30;;;;;;1560876;75;1138;-75
2024/01/28 04:41:46;;;;;;;;;;;18.70;55.30;;;;;;1548055;75;761;-72
2024/01/28 04:43:48;;;;;;;;;;;18.70;55.30;;;;;;1549329;75;676;-75
2024/01/28 04:45:50;;;;;;;;;;;18.80;55.40;;;;;;1560254;75;782;-76
2024/01/28 04:47:52;;;;;;;;;;;18.70;55.40;;;;;;1567748;75;1919;-76
2024/01/28 04:49:54;;;;;;;;;;;18.70;55.40;;;;;;1560938;75;1205;-78
2024/01/28 04:51:55;;;;;;;;;;;18.70;55.40;;;;;;1563378;75;723;-75
2024/01/28 04:53:58;;;;;;;;;;;18.70;55.40;;;;;;1548126;75;764;-75
2024/01/28 04:56:00;;;;;;;;;;;18.70;55.40;;;;;;1558956;75;544;-76
2024/01/28 04:58:02;;;;;;;;;;;18.70;55.40;;;;;;1537167;76;652;-74
2024/01/28 05:00:05;;;;;;;;;;;18.70;55.40;;;;;;1560193;75;1124;-73
2024/01/28 05:02:08;;;;;;;;;;;18.70;55.40;;;;;;1556581;75;696;-76
2024/01/28 05:04:09;;;;;;;;;;;18.70;55.40;;;;;;1559665;75;666;-76
2024/01/28 05:06:12;;;;;;;;;;;18.70;55.50;;;;;;1551295;75;683;-75
2024/01/28 05:08:14;;;;;;;;;;;18.70;55.40;;;;;;1557112;75;1930;-76
2024/01/28 05:10:16;;;;;;;;;;;18.70;55.50;;;;;;1553673;75;1103;-77
2024/01/28 05:12:18;;;;;;;;;;;18.70;55.50;;;;;;1551247;75;645;-77
2024/01/28 05:14:20;;;;;;;;;;;18.70;55.50;;;;;;1557452;75;644;-75
2024/01/28 05:16:23;;;;;;;;;;;18.70;55.50;;;;;;1560112;75;645;-74
2024/01/28 05:18:26;;;;;;;;;;;18.80;55.60;;;;;;1556373;75;596;-75
2024/01/28 05:20:27;;;;;;;;;;;18.70;55.40;;;;;;1558566;75;720;-77
2024/01/28 05:22:29;;;;;;;;;;;18.70;55.50;;;;;;1559688;75;725;-72
2024/01/28 05:24:31;;;;;;;;;;;18.70;55.50;;;;;;1561934;75;717;-74
2024/01/28 05:26:33;;;;;;;;;;;18.70;55.50;;;;;;1561424;75;715;-74
2024/01/28 05:28:35;;;;;;;;;;;18.70;55.50;;;;;;1557607;75;1935;-74
2024/01/28 05:30:37;;;;;;;;;;;18.70;55.50;;;;;;1566209;75;1336;-75
2024/01/28 05:32:39;;;;;;;;;;;18.70;55.40;;;;;;1567006;75;654;-74
2024/01/28 05:34:41;;;;;;;;;;;18.70;55.50;;;;;;1559052;75;733;-75
2024/01/28 05:36:43;;;;;;;;;;;18.70;55.50;;;;;;1560830;75;705;-74
2024/01/28 05:38:44;;;;;;;;;;;18.70;55.50;;;;;;1557446;75;1234;-73
2024/01/28 05:40:46;;;;;;;;;;;18.70;55.50;;;;;;1551195;75;661;-72
2024/01/28 05:42:48;;;;;;;;;;;18.70;55.50;;;;;;1564680;75;765;-74
2024/01/28 05:44:50;;;;;;;;;;;18.70;55.50;;;;;;1548368;75;588;-75
2024/01/28 05:46:52;;;;;;;;;;;18.70;55.50;;;;;;1556142;75;665;-76
2024/01/28 05:48:54;;;;;;;;;;;18.70;55.50;;;;;;1558186;75;1929;-73
2024/01/28 05:50:56;;;;;;;;;;;18.70;55.50;;;;;;1559337;75;738;-75
2024/01/28 05:52:58;;;;;;;;;;;18.70;55.50;;;;;;1559097;75;604;-74
2024/01/28 05:55:00;;;;;;;;;;;18.80;55.50;;;;;;1567845;75;685;-76
2024/01/28 05:57:02;;;;;;;;;;;18.70;55.60;;;;;;1560572;75;688;-75
2024/01/28 05:59:04;;;;;;;;;;;18.70;55.70;;;;;;1558354;75;1111;-74
2024/01/28 06:01:06;;;;;;;;;;;18.70;55.70;;;;;;1553557;75;685;-75
2024/01/28 06:03:08;;;;;;;;;;;18.70;55.70;;;;;;1550278;75;762;-75
2024/01/28 06:05:10;;;;;;;;;;;18.70;55.70;;;;;;1561050;75;716;-72
2024/01/28 06:07:11;;;;;;;;;;;18.70;55.60;;;;;;1554778;75;636;-73
2024/01/28 06:09:13;;;;;;;;;;;18.70;55.60;;;;;;1558194;75;1963;-76
2024/01/28 06:11:15;;;;;;;;;;;18.70;55.50;;;;;;1550905;74;587;-76
2024/01/28 06:13:17;;;;;;;;;;;18.70;55.70;;;;;;1554100;75;748;-74
2024/01/28 06:15:19;;;;;;;;;;;18.70;55.60;;;;;;1554898;75;722;-76
2024/01/28 06:17:21;;;;;;;;;;;18.70;55.50;;;;;;1559936;75;716;-76
2024/01/28 06:19:23;;;;;;;;;;;18.70;55.50;;;;;;1561812;75;1157;-77
2024/01/28 06:21:24;;;;;;;;;;;18.70;55.40;;;;;;1562030;75;690;-77
2024/01/28 06:23:26;;;;;;;;;;;18.70;55.30;;;;;;1558271;75;619;-77
2024/01/28 06:25:28;;;;;;;;;;;18.80;55.30;;;;;;1557563;75;725;-70
2024/01/28 06:27:30;;;;;;;;;;;18.70;55.20;;;;;;1551617;75;589;-77
2024/01/28 06:29:32;;;;;;;;;;;18.70;55.10;;;;;;1560444;75;1946;-77
2024/01/28 06:31:34;;;;;;;;;;;18.70;55.20;;;;;;1554963;75;649;-77
2024/01/28 06:33:36;;;;;;;;;;;18.60;55.00;;;;;;1553278;75;710;-73
2024/01/28 06:35:38;;;;;;;;;;;18.70;55.20;;;;;;1563468;74;621;-76
2024/01/28 06:37:40;;;;;;;;;;;18.70;55.20;;;;;;1558497;75;603;-75
2024/01/28 06:39:42;;;;;;;;;;;18.70;55.20;;;;;;1558912;75;1119;-75
2024/01/28 06:41:44;;;;;;;;;;;18.70;55.20;;;;;;1561640;75;591;-75
2024/01/28 06:43:45;;;;;;;;;;;18.60;55.10;;;;;;1546591;74;704;-77
2024/01/28 06:45:47;;;;;;;;;;;18.70;55.30;;;;;;1551132;75;679;-77
2024/01/28 06:47:50;;;;;;;;;;;18.60;55.20;;;;;;1557544;75;1939;-77
2024/01/28 06:49:52;;;;;;;;;;;18.70;55.40;;;;;;1551813;75;1173;-74
2024/01/28 06:51:54;;;;;;;;;;;18.70;55.40;;;;;;1557420;75;758;-77
2024/01/28 06:53:57;;;;;;;;;;;18.70;55.40;;;;;;1558019;75;717;-75
2024/01/28 06:55:59;;;;;;;;;;;18.70;55.50;;;;;;1560625;75;651;-77
2024/01/28 06:58:01;;;;;;;;;;;18.70;55.40;;;;;;1559066;75;713;-77
2024/01/28 07:00:04;;;;;;;;;;;18.70;55.40;;;;;;1554502;75;1176;-78
2024/01/28 07:02:08;;;;;;;;;;;18.70;55.50;;;;;;1550071;75;663;-76
2024/01/28 07:04:10;;;;;;;;;;;18.60;55.30;;;;;;1553158;75;1108;-75
2024/01/28 07:06:15;;;;;;;;;;;18.70;55.50;;;;;;1555381;75;599;-78
2024/01/28 07:08:17;;;;;;;;;;;18.60;55.30;;;;;;1551880;75;1924;-76
2024/01/28 07:10:18;;;;;;;;;;;18.70;55.50;;;;;;1557316;75;1169;-77
2024/01/28 07:12:21;;;;;;;;;;;18.70;55.40;;;;;;1554772;75;712;-75
2024/01/28 07:14:23;;;;;;;;;;;18.70;55.50;;;;;;1557066;74;762;-76
2024/01/28 07:16:25;;;;;;;;;;;18.70;55.40;;;;;;1555278;75;731;-75
2024/01/28 07:18:27;;;;;;;;;;;18.70;55.50;;;;;;1563807;75;724;-76
2024/01/28 07:20:29;;;;;;;;;;;18.70;55.40;;;;;;1554213;75;686;-77
2024/01/28 07:22:31;;;;;;;;;;;18.60;55.40;;;;;;1559044;75;651;-77
2024/01/28 07:24:33;;;;;;;;;;;18.70;55.50;;;;;;1560781;75;574;-77
2024/01/28 07:26:43;;;;;;;;;;;18.70;55.50;;;;;;1560367;75;730;-80
2024/01/28 07:28:45;;;;;;;;;;;18.70;55.50;;;;;;1554318;75;1908;-80
2024/01/28 07:30:46;;;;;;;;;;;18.70;55.50;;;;;;1560589;75;1317;-78
2024/01/28 07:32:48;;;;;;;;;;;18.70;55.50;;;;;;1552613;75;801;-77
2024/01/28 07:34:50;;;;;;;;;;;18.70;55.50;;;;;;1562371;75;730;-75
2024/01/28 07:36:54;;;;;;;;;;;18.70;55.60;;;;;;1558403;75;651;-77
2024/01/28 07:38:56;;;;;;;;;;;18.70;55.50;;;;;;1562709;75;1148;-76
2024/01/28 07:40:59;;;;;;;;;;;18.70;55.60;;;;;;1562370;75;566;-77
2024/01/28 07:43:00;;;;;;;;;;;18.70;55.50;;;;;;1563334;75;597;-78
2024/01/28 07:45:02;;;;;;;;;;;18.70;55.50;;;;;;1553037;74;705;-77
2024/01/28 07:47:04;;;;;;;;;;;18.70;55.50;;;;;;1557773;75;747;-75
2024/01/28 07:49:07;;;;;;;;;;;18.70;55.30;;;;;;1557542;75;1951;-77
2024/01/28 07:51:09;;;;;;;;;;;18.70;55.50;;;;;;1553965;75;681;-79
2024/01/28 07:53:12;;;;;;;;;;;18.70;55.50;;;;;;1556738;75;740;-73
2024/01/28 07:55:14;;;;;;;;;;;18.70;55.50;;;;;;1560584;75;709;-76
2024/01/28 07:57:16;;;;;;;;;;;18.70;55.50;;;;;;1562206;75;583;-77
2024/01/28 07:59:19;;;;;;;;;;;18.80;55.50;;;;;;1549190;75;1153;-76
2024/01/28 08:01:21;;;;;;;;;;;18.70;55.50;;;;;;1565770;75;649;-76
2024/01/28 08:03:23;;;;;;;;;;;18.70;55.50;;;;;;1558056;75;682;-77
2024/01/28 08:05:26;;;;;;;;;;;18.70;55.50;;;;;;1556562;75;735;-79
2024/01/28 08:07:28;;;;;;;;;;;18.70;55.60;;;;;;1556598;75;664;-75
2024/01/28 08:09:31;;;;;;;;;;;18.70;55.50;;;;;;1565327;75;1924;-76
2024/01/28 08:11:33;;;;;;;;;;;18.70;55.50;;;;;;1552590;75;784;-75
2024/01/28 08:13:35;;;;;;;;;;;18.70;55.50;;;;;;1562285;75;704;-75
2024/01/28 08:15:37;;;;;;;;;;;18.70;55.50;;;;;;1557789;75;690;-72
2024/01/28 08:17:39;;;;;;;;;;;18.70;55.50;;;;;;1556348;75;717;-76
2024/01/28 08:19:42;;;;;;;;;;;18.80;55.50;;;;;;1558223;75;1086;-75
2024/01/28 08:21:43;;;;;;;;;;;18.70;55.50;;;;;;1568789;75;677;-71
2024/01/28 08:23:45;;;;;;;;;;;18.70;55.60;;;;;;1561204;75;754;-77
2024/01/28 08:25:47;;;;;;;;;;;18.70;55.50;;;;;;1551946;75;679;-77
2024/01/28 08:27:49;;;;;;;;;;;18.70;55.50;;;;;;1563434;75;645;-77
2024/01/28 08:29:51;;;;;;;;;;;18.70;55.50;;;;;;1562156;75;1943;-77
2024/01/28 08:31:54;;;;;;;;;;;18.70;55.50;;;;;;1559986;75;704;-76
2024/01/28 08:33:55;;;;;;;;;;;18.80;55.60;;;;;;1558648;75;751;-75
2024/01/28 08:35:57;;;;;;;;;;;18.80;55.50;;;;;;1555818;76;695;-74
2024/01/28 08:37:59;;;;;;;;;;;18.80;55.50;;;;;;1557952;75;566;-76
2024/01/28 08:40:01;;;;;;;;;;;18.70;55.70;;;;;;1557517;75;1125;-74
2024/01/28 08:42:03;;;;;;;;;;;18.80;55.70;;;;;;1541529;75;640;-76
2024/01/28 08:44:05;;;;;;;;;;;18.70;55.70;;;;;;1566691;75;742;-74
2024/01/28 08:46:07;;;;;;;;;;;18.70;55.70;;;;;;1562766;75;750;-76
2024/01/28 08:48:09;;;;;;;;;;;18.80;55.70;;;;;;1554155;75;677;-76
2024/01/28 08:50:11;;;;;;;;;;;18.80;55.70;;;;;;1561561;75;1939;-76
2024/01/28 08:52:13;;;;;;;;;;;18.80;56.00;;;;;;1556704;75;707;-74
2024/01/28 08:54:15;;;;;;;;;;;18.70;55.90;;;;;;1559043;75;705;-76
2024/01/28 08:56:16;;;;;;;;;;;18.70;56.00;;;;;;1566434;75;604;-76
2024/01/28 08:58:18;;;;;;;;;;;18.70;56.00;;;;;;1567391;75;695;-76
2024/01/28 09:00:20;;;;;;;;;;;18.70;56.00;;;;;;1563442;74;1087;-76
2024/01/28 09:02:22;;;;;;;;;;;18.70;56.00;;;;;;1564845;75;692;-74
2024/01/28 09:04:24;;;;;;;;;;;18.80;56.20;;;;;;1557311;75;879;-74
2024/01/28 09:06:26;;;;;;;;;;;18.80;56.20;;;;;;1559343;75;652;-74
2024/01/28 09:08:30;;;;;;;;;;;18.80;56.20;;;;;;1564202;75;687;-73
2024/01/28 09:10:32;;;;;;;;;;;18.80;56.20;;;;;;1552412;75;1908;-76
2024/01/28 09:12:33;;;;;;;;;;;18.80;56.40;;;;;;1549579;75;676;-74
2024/01/28 09:14:35;;;;;;;;;;;18.80;56.30;;;;;;1546668;75;751;-78
2024/01/28 09:16:37;;;;;;;;;;;18.80;56.50;;;;;;1561238;75;668;-72
2024/01/28 09:18:42;;;;;;;;;;;18.80;56.40;;;;;;1556863;75;1141;-76
2024/01/28 09:20:43;;;;;;;;;;;18.90;56.30;;;;;;1548109;74;1380;-78
2024/01/28 09:22:45;;;;;;;;;;;18.90;53.90;;;;;;1560754;75;739;-77
2024/01/28 09:24:47;;;;;;;;;;;18.90;52.20;;;;;;1556999;75;673;-76
2024/01/28 09:26:49;;;;;;;;;;;18.80;51.20;;;;;;1550368;75;592;-78
2024/01/28 09:28:51;;;;;;;;;;;18.70;50.20;;;;;;1555690;75;1952;-77
2024/01/28 09:30:53;;;;;;;;;;;18.70;50.00;;;;;;1562188;75;1330;-77
2024/01/28 09:32:55;;;;;;;;;;;18.60;49.70;;;;;;1555831;75;620;-78
2024/01/28 09:34:57;;;;;;;;;;;18.60;49.50;;;;;;1557912;75;704;-76
2024/01/28 09:36:58;;;;;;;;;;;18.60;49.30;;;;;;1556564;75;636;-77
2024/01/28 09:39:00;;;;;;;;;;;18.60;49.40;;;;;;1552893;75;1125;-77
2024/01/28 09:41:04;;;;;;;;;;;18.60;48.90;;;;;;1558690;75;710;-79
2024/01/28 09:43:07;;;;;;;;;;;18.60;48.70;;;;;;1559751;75;659;-76
2024/01/28 09:45:09;;;;;;;;;;;18.50;48.60;;;;;;1555414;74;1134;-79
2024/01/28 09:47:11;;;;;;;;;;;18.50;48.50;;;;;;1559374;75;852;-79
2024/01/28 09:49:13;;;;;;;;;;;18.50;48.60;;;;;;1554337;75;1947;-76
2024/01/28 09:51:15;;;;;;;;;;;18.40;48.50;;;;;;1554273;75;685;-74
2024/01/28 09:53:17;;;;;;;;;;;18.30;48.60;;;;;;1559102;74;705;-74
2024/01/28 09:55:19;;;;;;;;;;;18.40;48.60;;;;;;1554131;75;726;-75
2024/01/28 09:57:21;;;;;;;;;;;18.50;48.10;;;;;;1553480;75;713;-76
2024/01/28 09:59:23;;;;;;;;;;;18.40;47.50;;;;;;1549946;75;1101;-75
2024/01/28 10:01:26;;;;;;;;;;;18.50;47.30;;;;;;1544832;75;716;-74
2024/01/28 10:03:28;;;;;;;;;;;18.40;46.70;;;;;;1555707;75;625;-76
2024/01/28 10:05:31;;;;;;;;;;;18.40;46.60;;;;;;1554286;75;736;-76
2024/01/28 10:07:47;;;;;;;;;;;18.40;46.40;;;;;;1564366;75;718;-75
2024/01/28 10:09:50;;;;;;;;;;;18.40;46.40;;;;;;1556642;75;1942;-76
2024/01/28 10:11:52;;;;;;;;;;;18.40;46.10;;;;;;1560537;75;644;-75
2024/01/28 10:13:54;;;;;;;;;;;18.40;45.50;;;;;;1549688;74;632;-75
2024/01/28 10:15:56;;;;;;;;;;;18.40;46.30;;;;;;1550715;75;594;-73
2024/01/28 10:17:58;;;;;;;;;;;18.40;46.00;;;;;;1553404;75;699;-76
2024/01/28 10:20:01;;;;;;;;;;;18.30;45.80;;;;;;1548039;75;1127;-76
2024/01/28 10:22:03;;;;;;;;;;;18.40;45.90;;;;;;1561660;75;568;-76
2024/01/28 10:24:05;;;;;;;;;;;18.40;45.80;;;;;;1538622;75;714;-74
2024/01/28 10:26:07;;;;;;;;;;;18.40;46.10;;;;;;1567178;75;760;-76
2024/01/28 10:28:09;;;;;;;;;;;18.40;45.70;;;;;;1563605;75;590;-74
2024/01/28 10:30:11;;;;;;;;;;;18.30;45.30;;;;;;1557293;75;1932;-76
2024/01/28 10:32:13;;;;;;;;;;;18.40;46.10;;;;;;1558637;75;692;-72
2024/01/28 10:34:15;;;;;;;;;;;18.40;47.10;;;;;;1555208;75;736;-74
2024/01/28 10:36:17;;;;;;;;;;;18.40;48.30;;;;;;1556653;75;745;-75
2024/01/28 10:38:20;;;;;;;;;;;18.50;49.00;;;;;;1553917;75;709;-76
2024/01/28 10:40:23;;;;;;;;;;;18.50;49.50;;;;;;1558410;75;1118;-75
2024/01/28 10:42:26;;;;;;;;;;;18.50;49.90;;;;;;1562529;75;722;-74
2024/01/28 10:44:27;;;;;;;;;;;18.40;50.00;;;;;;1560957;75;744;-73
2024/01/28 10:46:34;;;;;;;;;;;18.50;50.30;;;;;;1555337;75;703;-73
2024/01/28 10:48:35;;;;;;;;;;;18.50;50.50;;;;;;1556877;75;1159;-71
2024/01/28 10:50:37;;;;;;;;;;;18.50;50.60;;;;;;1559060;75;1951;-74
2024/01/28 10:52:39;;;;;;;;;;;18.60;50.70;;;;;;1559213;75;679;-73
2024/01/28 10:54:41;;;;;;;;;;;18.50;50.70;;;;;;1563973;75;677;-72
2024/01/28 10:56:43;;;;;;;;;;;18.60;50.90;;;;;;1554741;75;709;-74
2024/01/28 10:58:45;;;;;;;;;;;18.60;50.90;;;;;;1558239;74;1105;-77
2024/01/28 11:00:47;;;;;;;;;;;18.60;50.90;;;;;;1550463;75;653;-77
2024/01/28 11:02:49;;;;;;;;;;;18.60;51.00;;;;;;1558633;75;718;-79
2024/01/28 11:04:52;;;;;;;;;;;18.60;51.00;;;;;;1554298;75;679;-76
2024/01/28 11:06:54;;;;;;;;;;;18.70;51.30;;;;;;1559274;75;737;-74
2024/01/28 11:08:56;;;;;;;;;;;18.60;51.20;;;;;;1558805;74;1191;-76
2024/01/28 11:10:58;;;;;;;;;;;18.60;51.20;;;;;;1553793;76;1948;-75
2024/01/28 11:13:01;;;;;;;;;;;18.60;51.30;;;;;;1557332;75;687;-75
2024/01/28 11:15:03;;;;;;;;;;;18.60;51.30;;;;;;1560573;75;606;-78
2024/01/28 11:17:05;;;;;;;;;;;18.60;51.40;;;;;;1558995;75;656;-75
2024/01/28 11:19:08;;;;;;;;;;;18.60;51.40;;;;;;1558602;75;1181;-74
2024/01/28 11:21:11;;;;;;;;;;;18.60;51.40;;;;;;1558854;75;686;-76
2024/01/28 11:23:16;;;;;;;;;;;18.60;51.40;;;;;;1548047;75;756;-79
2024/01/28 11:25:21;;;;;;;;;;;18.70;51.60;;;;;;1556606;75;675;-76
2024/01/28 11:27:23;;;;;;;;;;;18.60;51.50;;;;;;1564470;75;653;-77
2024/01/28 11:29:26;;;;;;;;;;;18.60;51.60;;;;;;1559808;75;1416;-78
2024/01/28 11:31:34;;;;;;;;;;;18.70;51.70;;;;;;1538535;75;1123;-77
2024/01/28 11:33:36;;;;;;;;;;;18.60;51.60;;;;;;1567364;75;651;-77
2024/01/28 11:35:39;;;;;;;;;;;18.60;51.60;;;;;;1554037;75;796;-73
2024/01/28 11:37:46;;;;;;;;;;;18.60;51.60;;;;;;1568851;75;672;-75
2024/01/28 11:39:48;;;;;;;;;;;18.50;51.50;;;;;;1555497;75;1164;-77
2024/01/28 11:41:50;;;;;;;;;;;18.60;51.60;;;;;;1562466;75;680;-77
2024/01/28 11:43:52;;;;;;;;;;;18.60;51.60;;;;;;1555928;75;1011;-77
2024/01/28 11:45:54;;;;;;;;;;;18.60;51.70;;;;;;1556010;75;738;-77
2024/01/28 11:47:55;;;;;;;;;;;18.70;51.40;;;;;;1554027;75;741;-73
2024/01/28 11:49:57;;;;;;;;;;;18.60;49.20;;;;;;1565319;75;1946;-75
2024/01/28 11:51:59;;;;;;;;;;;18.60;47.60;;;;;;1560231;75;713;-74
2024/01/28 11:54:02;;;;;;;;;;;18.50;46.90;;;;;;1564966;75;731;-78
2024/01/28 11:56:07;;;;;;;;;;;18.50;46.00;;;;;;1551011;74;675;-74
2024/01/28 11:58:09;;;;;;;;;;;18.40;45.20;;;;;;1557391;74;793;-75
2024/01/28 12:00:11;;;;;;;;;;;18.40;44.70;;;;;;1561825;75;1118;-77
2024/01/28 12:02:14;;;;;;;;;;;18.30;44.00;;;;;;1557406;75;725;-80
2024/01/28 12:04:16;;;;;;;;;;;18.30;43.40;;;;;;1556543;75;634;-80
2024/01/28 12:06:18;;;;;;;;;;;18.30;42.80;;;;;;1545614;75;726;-80
2024/01/28 12:08:27;;;;;;;;;;;18.20;42.50;;;;;;1543624;75;640;-76